createdAt,value
2022-09-13T00:01:27.012Z,14.20
2022-09-13T00:03:53.872Z,14.20
2022-09-13T00:06:21.287Z,14.30
2022-09-13T00:08:48.894Z,14.20
2022-09-13T00:11:26.835Z,14.20
2022-09-13T00:13:54.010Z,14.20
2022-09-13T00:16:22.907Z,14.20
2022-09-13T00:18:50.131Z,14.20
2022-09-13T00:21:19.189Z,14.20
2022-09-13T00:23:48.105Z,14.20
2022-09-13T00:26:18.159Z,14.10
2022-09-13T00:28:48.336Z,14.10
2022-09-13T00:31:15.282Z,14.10
2022-09-13T00:33:42.112Z,14.20
2022-09-13T00:36:11.699Z,14.10
2022-09-13T00:38:39.990Z,14.20
2022-09-13T00:41:10.526Z,14.20
2022-09-13T00:43:54.206Z,14.20
2022-09-13T00:46:24.017Z,14.20
2022-09-13T00:48:55.457Z,14.20
2022-09-13T00:51:22.623Z,14.30
2022-09-13T00:53:54.479Z,14.20
2022-09-13T00:56:36.567Z,14.30
2022-09-13T00:59:11.485Z,14.30
2022-09-13T01:01:46.662Z,14.30
2022-09-13T01:04:14.575Z,14.40
2022-09-13T01:06:42.749Z,14.40
2022-09-13T01:09:12.256Z,14.50
2022-09-13T01:11:55.715Z,14.50
2022-09-13T01:14:24.107Z,14.50
2022-09-13T01:16:52.389Z,14.60
2022-09-13T01:19:19.190Z,14.60
2022-09-13T01:22:18.454Z,14.60
2022-09-13T01:25:03.308Z,14.70
2022-09-13T01:27:52.293Z,14.60
2022-09-13T01:30:28.762Z,14.70
2022-09-13T01:33:01.892Z,14.70
2022-09-13T01:35:31.754Z,14.70
2022-09-13T01:38:16.560Z,14.80
2022-09-13T01:41:07.158Z,14.80
2022-09-13T01:43:52.785Z,14.80
2022-09-13T01:46:42.023Z,14.80
2022-09-13T01:49:23.450Z,14.80
2022-09-13T01:52:21.017Z,14.90
2022-09-13T01:55:11.502Z,14.90
2022-09-13T01:57:43.958Z,14.90
2022-09-13T02:00:12.656Z,14.90
2022-09-13T02:02:51.435Z,14.90
2022-09-13T02:06:06.096Z,15.00
2022-09-13T02:08:46.556Z,15.00
2022-09-13T02:11:17.183Z,15.00
2022-09-13T02:13:50.398Z,15.00
2022-09-13T02:16:32.347Z,15.00
2022-09-13T02:19:08.990Z,15.10
2022-09-13T02:21:39.890Z,15.10
2022-09-13T02:24:16.896Z,15.10
2022-09-13T02:26:46.985Z,15.10
2022-09-13T02:29:19.928Z,15.10
2022-09-13T02:31:57.029Z,15.20
2022-09-13T02:34:30.042Z,15.20
2022-09-13T02:36:58.586Z,15.20
2022-09-13T02:39:29.377Z,15.20
2022-09-13T02:42:15.865Z,15.30
2022-09-13T02:44:48.733Z,15.30
2022-09-13T02:47:42.893Z,15.30
2022-09-13T02:50:34.655Z,15.30
2022-09-13T02:53:25.662Z,15.30
2022-09-13T02:55:59.136Z,15.40
2022-09-13T02:58:50.729Z,15.40
2022-09-13T03:01:17.733Z,15.40
2022-09-13T03:03:44.819Z,15.50
2022-09-13T03:06:11.628Z,15.50
2022-09-13T03:08:38.462Z,15.50
2022-09-13T03:11:15.754Z,15.50
2022-09-13T03:14:04.029Z,15.50
2022-09-13T03:17:02.845Z,15.50
2022-09-13T03:19:32.309Z,15.50
2022-09-13T03:22:32.253Z,15.40
2022-09-13T03:25:13.001Z,15.40
2022-09-13T03:28:05.770Z,15.30
2022-09-13T03:30:36.996Z,15.30
2022-09-13T03:33:21.004Z,15.30
2022-09-13T03:36:06.590Z,15.20
2022-09-13T03:38:42.095Z,15.20
2022-09-13T03:41:24.308Z,15.20
2022-09-13T03:43:56.814Z,15.10
2022-09-13T03:46:26.551Z,15.10
2022-09-13T03:48:55.770Z,15.10
2022-09-13T03:51:23.074Z,15.10
2022-09-13T03:53:59.830Z,15.00
2022-09-13T03:56:26.919Z,14.90
2022-09-13T03:58:53.764Z,14.90
2022-09-13T04:01:23.663Z,14.90
2022-09-13T04:03:54.651Z,14.80
2022-09-13T04:06:23.291Z,14.80
2022-09-13T04:08:50.187Z,14.80
2022-09-13T04:11:17.107Z,14.80
2022-09-13T04:13:43.923Z,14.70
2022-09-13T04:16:10.725Z,14.70
2022-09-13T04:18:37.499Z,14.70
2022-09-13T04:21:04.791Z,14.70
2022-09-13T04:23:31.890Z,14.70
2022-09-13T04:26:05.980Z,14.70
2022-09-13T04:28:32.796Z,14.70
2022-09-13T04:30:59.568Z,14.70
2022-09-13T04:33:26.669Z,14.70
2022-09-13T04:36:03.037Z,14.80
2022-09-13T04:38:31.980Z,14.80
2022-09-13T04:40:58.810Z,14.80
2022-09-13T04:43:25.756Z,14.70
2022-09-13T04:45:52.690Z,14.80
2022-09-13T04:48:19.517Z,14.80
2022-09-13T04:50:46.290Z,14.80
2022-09-13T04:53:13.052Z,14.80
2022-09-13T04:55:39.902Z,14.80
2022-09-13T04:58:06.660Z,14.80
2022-09-13T05:00:34.007Z,14.80
2022-09-13T05:03:01.027Z,14.90
2022-09-13T05:05:29.239Z,14.90
2022-09-13T05:07:56.106Z,15.00
2022-09-13T05:10:22.926Z,15.00
2022-09-13T05:12:49.872Z,15.00
2022-09-13T05:15:16.851Z,15.10
2022-09-13T05:17:43.643Z,15.10
2022-09-13T05:20:11.091Z,15.20
2022-09-13T05:22:38.031Z,15.20
2022-09-13T05:25:05.289Z,15.20
2022-09-13T05:27:32.074Z,15.20
2022-09-13T05:29:58.868Z,15.30
2022-09-13T05:32:25.612Z,15.30
2022-09-13T05:34:52.361Z,15.30
2022-09-13T05:37:19.290Z,15.40
2022-09-13T05:40:07.791Z,15.50
2022-09-13T05:42:32.769Z,15.60
2022-09-13T05:44:59.673Z,15.70
2022-09-13T05:47:26.401Z,15.80
2022-09-13T05:50:09.836Z,15.80
2022-09-13T05:52:37.448Z,15.90
2022-09-13T05:55:04.465Z,16.00
2022-09-13T05:57:31.284Z,16.10
2022-09-13T05:59:58.033Z,16.20
2022-09-13T06:02:24.815Z,16.30
2022-09-13T06:04:52.005Z,16.30
2022-09-13T06:07:19.048Z,16.30
2022-09-13T06:09:45.779Z,16.30
2022-09-13T06:12:12.518Z,16.40
2022-09-13T06:14:39.258Z,16.40
2022-09-13T06:17:06.096Z,16.50
2022-09-13T06:19:32.974Z,16.50
2022-09-13T06:21:59.737Z,16.50
2022-09-13T06:24:26.534Z,16.60
2022-09-13T06:26:54.111Z,16.60
2022-09-13T06:29:20.830Z,16.60
2022-09-13T06:31:47.645Z,16.70
2022-09-13T06:34:15.649Z,16.80
2022-09-13T06:36:42.647Z,16.80
2022-09-13T06:39:09.790Z,16.90
2022-09-13T06:41:37.527Z,17.00
2022-09-13T06:44:05.203Z,17.10
2022-09-13T06:46:35.007Z,17.20
2022-09-13T06:49:04.312Z,17.20
2022-09-13T06:51:32.467Z,17.30
2022-09-13T06:54:00.177Z,17.40
2022-09-13T06:56:36.066Z,17.40
2022-09-13T06:59:05.419Z,17.40
2022-09-13T07:01:32.332Z,17.40
2022-09-13T07:04:03.727Z,17.50
2022-09-13T07:07:23.755Z,17.50
2022-09-13T07:09:50.468Z,17.50
2022-09-13T07:12:20.443Z,17.50
2022-09-13T07:14:47.598Z,17.50
2022-09-13T07:17:14.608Z,17.50
2022-09-13T07:19:41.401Z,17.50
2022-09-13T07:22:08.188Z,17.50
2022-09-13T07:24:34.908Z,17.60
2022-09-13T07:27:01.636Z,17.60
2022-09-13T07:29:28.415Z,17.60
2022-09-13T07:31:56.831Z,17.60
2022-09-13T07:34:24.990Z,17.60
2022-09-13T07:36:52.604Z,17.50
2022-09-13T07:39:22.641Z,17.50
2022-09-13T07:41:50.521Z,17.50
2022-09-13T07:44:17.267Z,17.50
2022-09-13T07:46:44.315Z,17.40
2022-09-13T07:49:13.323Z,17.40
2022-09-13T07:51:42.016Z,17.40
2022-09-13T07:54:14.922Z,17.40
2022-09-13T07:56:42.193Z,17.40
2022-09-13T07:59:15.695Z,17.40
2022-09-13T08:01:52.398Z,17.30
2022-09-13T08:04:23.833Z,17.30
2022-09-13T08:06:50.739Z,17.30
2022-09-13T08:09:17.825Z,17.20
2022-09-13T08:11:51.803Z,17.10
2022-09-13T08:14:20.849Z,17.10
2022-09-13T08:16:47.765Z,17.10
2022-09-13T08:19:16.922Z,17.10
2022-09-13T08:21:46.285Z,17.20
2022-09-13T08:24:21.428Z,17.20
2022-09-13T08:26:48.384Z,17.20
2022-09-13T08:29:16.245Z,17.30
2022-09-13T08:31:43.483Z,17.30
2022-09-13T08:34:18.143Z,17.40
2022-09-13T08:36:45.130Z,17.30
2022-09-13T08:39:13.922Z,17.30
2022-09-13T08:41:42.260Z,17.40
2022-09-13T08:44:25.795Z,17.50
2022-09-13T08:47:17.618Z,17.50
2022-09-13T08:49:48.531Z,17.50
2022-09-13T08:52:15.249Z,17.50
2022-09-13T08:54:42.775Z,17.60
2022-09-13T08:57:22.694Z,17.80
2022-09-13T09:00:24.595Z,17.80
2022-09-13T09:03:19.102Z,17.90
2022-09-13T09:05:50.965Z,17.90
2022-09-13T09:08:49.753Z,17.90
2022-09-13T09:11:36.121Z,17.90
2022-09-13T09:14:46.661Z,17.80
2022-09-13T09:17:25.348Z,17.80
2022-09-13T09:20:23.888Z,17.70
2022-09-13T09:22:52.651Z,17.70
2022-09-13T09:25:24.885Z,17.70
2022-09-13T09:27:53.740Z,17.80
2022-09-13T09:30:21.279Z,17.90
2022-09-13T09:33:17.182Z,18.00
2022-09-13T09:35:53.111Z,18.00
2022-09-13T09:38:25.476Z,18.00
2022-09-13T09:40:52.315Z,18.20
2022-09-13T09:43:27.190Z,18.20
2022-09-13T09:45:55.947Z,18.10
2022-09-13T09:48:29.807Z,18.10
2022-09-13T09:51:01.112Z,18.10
2022-09-13T09:53:37.022Z,18.20
2022-09-13T09:56:24.454Z,18.20
2022-09-13T09:58:54.395Z,18.30
2022-09-13T10:01:34.019Z,18.40
2022-09-13T10:04:08.741Z,18.60
2022-09-13T10:06:37.896Z,18.70
2022-09-13T10:09:18.574Z,18.70
2022-09-13T10:11:50.450Z,18.80
2022-09-13T10:14:41.749Z,19.00
2022-09-13T10:17:28.388Z,19.30
2022-09-13T10:20:26.693Z,19.60
2022-09-13T10:23:11.758Z,19.80
2022-09-13T10:25:39.668Z,20.10
2022-09-13T10:28:13.310Z,20.10
2022-09-13T10:30:53.347Z,20.20
2022-09-13T10:34:04.608Z,20.40
2022-09-13T10:36:51.691Z,20.40
2022-09-13T10:39:21.651Z,20.40
2022-09-13T10:42:07.800Z,20.30
2022-09-13T10:44:43.439Z,20.10
2022-09-13T10:47:20.181Z,20.00
2022-09-13T10:49:52.950Z,20.00
2022-09-13T10:52:28.951Z,20.00
2022-09-13T10:55:14.604Z,20.00
2022-09-13T10:57:41.601Z,19.90
2022-09-13T11:00:17.656Z,19.90
2022-09-13T11:03:02.472Z,19.90
2022-09-13T11:05:48.160Z,20.00
2022-09-13T11:08:39.284Z,20.10
2022-09-13T11:11:08.819Z,20.30
2022-09-13T11:13:35.496Z,20.40
2022-09-13T11:16:32.649Z,20.50
2022-09-13T11:19:17.502Z,20.50
2022-09-13T11:21:52.645Z,20.90
2022-09-13T11:24:28.227Z,20.90
2022-09-13T11:27:13.936Z,20.80
2022-09-13T11:30:01.221Z,20.70
2022-09-13T11:32:49.638Z,20.50
2022-09-13T11:35:28.258Z,20.50
2022-09-13T11:38:00.889Z,20.50
2022-09-13T11:40:52.678Z,20.50
2022-09-13T11:44:15.062Z,20.40
2022-09-13T11:46:44.792Z,20.60
2022-09-13T11:49:40.025Z,20.80
2022-09-13T11:52:16.717Z,21.00
2022-09-13T11:54:47.941Z,21.20
2022-09-13T11:57:31.908Z,21.30
2022-09-13T12:00:11.465Z,21.40
2022-09-13T12:02:49.669Z,21.60
2022-09-13T12:05:23.915Z,21.70
2022-09-13T12:08:00.220Z,21.80
2022-09-13T12:10:49.236Z,21.90
2022-09-13T12:13:23.707Z,21.70
2022-09-13T12:15:55.296Z,21.40
2022-09-13T12:18:29.012Z,20.90
2022-09-13T12:21:19.372Z,20.70
2022-09-13T12:24:02.844Z,20.10
2022-09-13T12:26:52.608Z,19.90
2022-09-13T12:29:51.174Z,19.90
2022-09-13T12:32:18.858Z,19.90
2022-09-13T12:35:02.692Z,19.90
2022-09-13T12:37:41.369Z,19.80
2022-09-13T12:40:27.019Z,19.90
2022-09-13T12:43:19.892Z,20.00
2022-09-13T12:46:04.233Z,20.10
2022-09-13T12:48:36.915Z,20.00
2022-09-13T12:51:15.610Z,20.00
2022-09-13T12:54:16.082Z,20.00
2022-09-13T12:56:48.638Z,19.90
2022-09-13T12:59:36.938Z,20.00
2022-09-13T13:02:21.580Z,20.10
2022-09-13T13:04:54.469Z,20.10
2022-09-13T13:07:23.502Z,20.30
2022-09-13T13:09:53.886Z,20.30
2022-09-13T13:12:37.085Z,20.50
2022-09-13T13:15:16.162Z,20.60
2022-09-13T13:17:51.155Z,20.70
2022-09-13T13:20:56.004Z,20.60
2022-09-13T13:23:28.286Z,20.80
2022-09-13T13:25:54.919Z,21.00
2022-09-13T13:28:43.969Z,21.10
2022-09-13T13:31:11.081Z,21.40
2022-09-13T13:33:52.981Z,21.50
2022-09-13T13:36:24.095Z,21.70
2022-09-13T13:38:52.919Z,21.70
2022-09-13T13:41:38.389Z,21.70
2022-09-13T13:44:17.936Z,21.70
2022-09-13T13:46:45.449Z,21.60
2022-09-13T13:49:35.460Z,21.40
2022-09-13T13:52:19.052Z,21.30
2022-09-13T13:54:45.764Z,21.20
2022-09-13T13:57:40.629Z,21.30
2022-09-13T14:00:20.903Z,21.40
2022-09-13T14:02:50.728Z,21.40
2022-09-13T14:05:28.584Z,21.50
2022-09-13T14:08:01.610Z,21.60
2022-09-13T14:10:34.333Z,21.70
2022-09-13T14:13:01.151Z,21.80
2022-09-13T14:15:47.407Z,22.00
2022-09-13T14:18:26.279Z,22.10
2022-09-13T14:21:01.115Z,22.10
2022-09-13T14:23:27.941Z,22.10
2022-09-13T14:25:57.287Z,22.30
2022-09-13T14:28:24.889Z,22.20
2022-09-13T14:30:59.261Z,22.10
2022-09-13T14:33:33.059Z,21.90
2022-09-13T14:36:04.718Z,21.70
2022-09-13T14:38:35.470Z,21.60
2022-09-13T14:41:29.173Z,21.50
2022-09-13T14:44:28.797Z,21.50
2022-09-13T14:47:05.479Z,21.50
2022-09-13T14:49:54.753Z,21.50
2022-09-13T14:52:31.894Z,21.70
2022-09-13T14:55:04.410Z,21.70
2022-09-13T14:57:34.974Z,21.70
2022-09-13T15:00:17.703Z,21.70
2022-09-13T15:02:59.877Z,21.70
2022-09-13T15:05:31.199Z,21.70
2022-09-13T15:07:58.056Z,21.80
2022-09-13T15:10:33.597Z,21.90
2022-09-13T15:13:10.454Z,22.00
2022-09-13T15:15:42.253Z,22.10
2022-09-13T15:18:17.861Z,22.40
2022-09-13T15:20:47.469Z,22.60
2022-09-13T15:23:17.150Z,22.70
2022-09-13T15:25:57.414Z,22.90
2022-09-13T15:28:27.507Z,23.00
2022-09-13T15:30:56.139Z,23.00
2022-09-13T15:33:31.955Z,23.00
2022-09-13T15:36:19.822Z,23.00
2022-09-13T15:39:03.275Z,23.00
2022-09-13T15:41:32.697Z,22.80
2022-09-13T15:44:05.205Z,22.80
2022-09-13T15:46:34.813Z,22.80
2022-09-13T15:49:08.593Z,22.90
2022-09-13T15:51:38.946Z,22.90
2022-09-13T15:54:13.020Z,23.00
2022-09-13T15:56:43.164Z,23.00
2022-09-13T15:59:19.191Z,23.00
2022-09-13T16:01:48.565Z,23.20
2022-09-13T16:04:16.239Z,23.10
2022-09-13T16:06:44.235Z,22.90
2022-09-13T16:09:27.280Z,22.80
2022-09-13T16:11:54.063Z,22.60
2022-09-13T16:14:21.088Z,22.40
2022-09-13T16:16:49.074Z,22.30
2022-09-13T16:19:19.536Z,22.20
2022-09-13T16:21:46.541Z,22.10
2022-09-13T16:24:13.661Z,22.10
2022-09-13T16:26:41.226Z,22.00
2022-09-13T16:29:08.122Z,21.90
2022-09-13T16:31:35.007Z,21.90
2022-09-13T16:34:02.048Z,21.70
2022-09-13T16:36:29.003Z,21.50
2022-09-13T16:38:56.882Z,21.40
2022-09-13T16:41:24.085Z,21.30
2022-09-13T16:43:51.060Z,21.30
2022-09-13T16:46:18.193Z,21.20
2022-09-13T16:48:45.066Z,21.10
2022-09-13T16:51:13.275Z,21.00
2022-09-13T16:53:41.869Z,20.80
2022-09-13T16:56:16.422Z,20.60
2022-09-13T16:58:46.708Z,20.50
2022-09-13T17:01:15.302Z,20.30
2022-09-13T17:03:42.242Z,20.10
2022-09-13T17:06:11.941Z,20.00
2022-09-13T17:08:40.581Z,19.80
2022-09-13T17:11:12.874Z,19.70
2022-09-13T17:13:40.646Z,19.60
2022-09-13T17:16:19.577Z,19.40
2022-09-13T17:18:46.396Z,19.30
2022-09-13T17:21:13.168Z,19.10
2022-09-13T17:23:39.931Z,19.00
2022-09-13T17:26:07.513Z,18.90
2022-09-13T17:28:36.577Z,18.80
2022-09-13T17:31:03.505Z,18.60
2022-09-13T17:33:30.291Z,18.50
2022-09-13T17:36:07.435Z,18.40
2022-09-13T17:38:38.211Z,18.20
2022-09-13T17:41:14.191Z,18.10
2022-09-13T17:43:42.924Z,18.00
2022-09-13T17:46:22.474Z,17.90
2022-09-13T17:48:52.048Z,17.80
2022-09-13T17:51:21.498Z,17.70
2022-09-13T17:53:54.123Z,17.60
2022-09-13T17:56:23.585Z,17.50
2022-09-13T17:58:50.277Z,17.40
2022-09-13T18:01:17.392Z,17.30
2022-09-13T18:03:44.489Z,17.20
2022-09-13T18:06:14.074Z,17.10
2022-09-13T18:08:41.388Z,17.00
2022-09-13T18:11:14.354Z,16.90
2022-09-13T18:13:42.949Z,16.80
2022-09-13T18:16:21.383Z,16.70
2022-09-13T18:18:52.908Z,16.70
2022-09-13T18:21:21.726Z,16.70
2022-09-13T18:23:51.088Z,16.70
2022-09-13T18:26:20.821Z,16.70
2022-09-13T18:28:52.551Z,16.60
2022-09-13T18:31:19.356Z,16.60
2022-09-13T18:33:46.434Z,16.60
2022-09-13T18:36:16.275Z,16.60
2022-09-13T18:38:46.080Z,16.50
2022-09-13T18:41:21.350Z,16.50
2022-09-13T18:43:54.936Z,16.40
2022-09-13T18:46:25.351Z,16.40
2022-09-13T18:48:54.384Z,16.40
2022-09-13T18:51:23.470Z,16.30
2022-09-13T18:53:50.838Z,16.20
2022-09-13T18:56:20.554Z,16.20
2022-09-13T18:58:47.983Z,16.10
2022-09-13T19:01:21.742Z,16.10
2022-09-13T19:03:54.143Z,16.00
2022-09-13T19:06:28.586Z,16.00
2022-09-13T19:08:57.580Z,15.90
2022-09-13T19:11:45.802Z,15.80
2022-09-13T19:14:25.428Z,15.80
2022-09-13T19:16:53.613Z,15.70
2022-09-13T19:19:20.968Z,15.70
2022-09-13T19:21:48.125Z,15.60
2022-09-13T19:24:19.404Z,15.50
2022-09-13T19:26:49.254Z,15.50
2022-09-13T19:29:18.530Z,15.40
2022-09-13T19:31:51.522Z,15.40
2022-09-13T19:34:19.981Z,15.30
2022-09-13T19:36:48.998Z,15.30
2022-09-13T19:39:16.307Z,15.20
2022-09-13T19:41:43.109Z,15.20
2022-09-13T19:44:12.682Z,15.10
2022-09-13T19:46:41.729Z,15.10
2022-09-13T19:49:15.253Z,15.00
2022-09-13T19:51:45.527Z,14.90
2022-09-13T19:54:18.320Z,14.90
2022-09-13T19:56:45.778Z,14.80
2022-09-13T19:59:17.135Z,14.70
2022-09-13T20:01:45.501Z,14.60
2022-09-13T20:04:21.181Z,14.60
2022-09-13T20:06:50.557Z,14.50
2022-09-13T20:09:19.556Z,14.40
2022-09-13T20:11:48.433Z,14.30
2022-09-13T20:14:18.145Z,14.30
2022-09-13T20:16:45.749Z,14.20
2022-09-13T20:22:08.481Z,14.10
2022-09-13T20:24:35.429Z,14.10
2022-09-13T20:27:02.196Z,14.00
2022-09-13T20:29:28.988Z,14.00
2022-09-13T20:31:55.755Z,14.00
2022-09-13T20:34:22.565Z,13.90
2022-09-13T20:36:49.382Z,13.90
2022-09-13T20:39:16.391Z,13.90
2022-09-13T20:41:43.975Z,13.80
2022-09-13T20:44:11.661Z,13.80
2022-09-13T20:46:40.375Z,13.70
2022-09-13T20:49:09.176Z,13.70
2022-09-13T20:51:36.366Z,13.70
2022-09-13T20:54:03.901Z,13.60
2022-09-13T20:56:34.257Z,13.60
2022-09-13T20:59:01.803Z,13.60
2022-09-13T21:01:31.130Z,13.60
2022-09-13T21:03:59.070Z,13.50
2022-09-13T21:06:28.307Z,13.50
2022-09-13T21:08:56.373Z,13.50
2022-09-13T21:11:27.016Z,13.40
2022-09-13T21:14:00.154Z,13.40
2022-09-13T21:16:36.723Z,13.40
2022-09-13T21:19:04.335Z,13.30
2022-09-13T21:21:34.554Z,13.30
2022-09-13T21:24:03.998Z,13.30
2022-09-13T21:26:31.408Z,13.30
2022-09-13T21:28:58.804Z,13.30
2022-09-13T21:31:28.330Z,13.30
2022-09-13T21:33:57.808Z,13.30
2022-09-13T21:36:25.338Z,13.20
2022-09-13T21:38:54.360Z,13.20
2022-09-13T21:41:21.928Z,13.30
2022-09-13T21:43:49.365Z,13.30
2022-09-13T21:46:17.630Z,13.30
2022-09-13T21:48:49.825Z,13.30
2022-09-13T21:51:30.841Z,13.20
2022-09-13T21:53:59.478Z,13.20
2022-09-13T21:56:29.530Z,13.20
2022-09-13T21:59:04.565Z,13.20
2022-09-13T22:01:34.702Z,13.20
2022-09-13T22:04:02.329Z,13.10
2022-09-13T22:06:33.805Z,13.10
2022-09-13T22:09:04.256Z,13.10
2022-09-13T22:11:34.711Z,13.10
2022-09-13T22:14:02.438Z,13.10
2022-09-13T22:16:30.715Z,13.10
2022-09-13T22:19:19.419Z,13.00
2022-09-13T22:21:49.255Z,13.10
2022-09-13T22:24:20.357Z,13.00
2022-09-13T22:26:48.508Z,13.00
2022-09-13T22:29:16.397Z,13.10
2022-09-13T22:31:45.236Z,13.00
2022-09-13T22:34:14.704Z,13.00
2022-09-13T22:36:42.487Z,13.00
2022-09-13T22:39:15.331Z,13.00
2022-09-13T22:41:42.471Z,13.00
2022-09-13T22:44:10.017Z,13.00
2022-09-13T22:46:43.052Z,12.90
2022-09-13T22:49:15.968Z,12.90
2022-09-13T22:51:45.088Z,12.90
2022-09-13T22:54:12.530Z,12.80
2022-09-13T22:56:39.520Z,12.80
2022-09-13T22:59:15.086Z,12.80
2022-09-13T23:01:42.543Z,12.70
2022-09-13T23:04:09.548Z,12.70
2022-09-13T23:06:37.081Z,12.70
2022-09-13T23:09:08.157Z,12.70
2022-09-13T23:11:37.432Z,12.70
2022-09-13T23:14:12.781Z,12.70
2022-09-13T23:16:45.227Z,12.60
2022-09-13T23:19:13.053Z,12.60
2022-09-13T23:21:40.842Z,12.70
2022-09-13T23:24:14.731Z,12.60
2022-09-13T23:26:42.501Z,12.70
2022-09-13T23:29:13.013Z,12.60
2022-09-13T23:31:40.575Z,12.60
2022-09-13T23:34:10.134Z,12.60
2022-09-13T23:36:39.240Z,12.60
2022-09-13T23:39:08.650Z,12.60
2022-09-13T23:41:35.919Z,12.60
2022-09-13T23:44:03.744Z,12.60
2022-09-13T23:46:31.157Z,12.70
2022-09-13T23:48:58.053Z,12.60
2022-09-13T23:51:26.492Z,12.60
2022-09-13T23:54:00.903Z,12.60
2022-09-13T23:56:29.708Z,12.60
2022-09-13T23:58:58.385Z,12.60
